Menu Close Menu
Station Historical Data
Daily Summary for May 28, 2017 Units:  Metric    English   Both
« Previous Day
Next Day »
Daily Weekly Monthly Yearly Custom
  High: Low: Average:
Temperature: 27.9 °C 17.1 °C 21.9 °C
Dew Point: 21.7 °C 15.6 °C 18.3 °C
Humidity: 94% 61% 81%
Wind Speed: 3.2km/h 0km/h 0km/h
Wind Gust: 9.7km/h - -
Wind- - SW
Pressure: 1016.5 hPa 1011.1 hPa -
Precipitation: 1.02 mm    
Historical Graphs
 
 
Tabular Data for May 28, 2017
Time Temperature Dew Point Pressure Wind Wind Speed Wind Gust Humidity Rainfall Rate (Hourly) solar Conditions
00:00 23.3 °C 20.7 °C 1014.4 hPa Calm     85% 0 mm WeatherDisplay:10.37 W/m2 SCT
00:10 23.3 °C 20.6 °C 1014.4 hPa Calm     85% 0 mm WeatherDisplay:10.37 W/m2 SCT
00:20 23.2 °C 20.6 °C 1014.1 hPa Calm     85% 0 mm WeatherDisplay:10.37 W/m2 SCT
00:30 23.1 °C 20.4 °C 1013.8 hPa Calm     85% 0 mm WeatherDisplay:10.37 W/m2 SCT
00:40 23 °C 20.6 °C 1014.1 hPa Calm     86% 0 mm WeatherDisplay:10.37 W/m2 SCT
00:50 22.9 °C 20.4 °C 1014.1 hPa Calm     86% 0 mm WeatherDisplay:10.37 W/m2 SCT
01:00 22.8 °C 20.3 °C 1014.1 hPa Calm     86% 0 mm WeatherDisplay:10.37 W/m2 SCT
01:10 22.6 °C 17.5 °C 1015.8 hPa SSW 3.2 km/h 9.7 km/h 73% 0 mm WeatherDisplay:10.37 W/m2 SCT
01:20 20.7 °C 17.1 °C 1015.5 hPa Calm   9.7 km/h 80% 0.25 mm WeatherDisplay:10.37 W/m2 RA
01:30 19.4 °C 16.6 °C 1015.1 hPa Calm   3.2 km/h 84% 0.51 mm WeatherDisplay:10.37 W/m2 SCT
01:40 18.8 °C 16.4 °C 1014.8 hPa Calm   1.6 km/h 86% 0.25 mm WeatherDisplay:10.37 W/m2 SCT
01:50 18.5 °C 16.5 °C 1015.1 hPa Calm     88% 0 mm WeatherDisplay:10.37 W/m2 SCT
02:00 18.2 °C 16.4 °C 1014.8 hPa Calm     89% 0 mm WeatherDisplay:10.37 W/m2 SCT
02:10 18.1 °C 16.4 °C 1014.4 hPa Calm     90% 0 mm WeatherDisplay:10.37 W/m2 SCT
02:20 18 °C 16.3 °C 1013.8 hPa Calm     90% 0 mm WeatherDisplay:10.37 W/m2 SCT
02:30 17.9 °C 16.4 °C 1013.8 hPa Calm     91% 0 mm WeatherDisplay:10.37 W/m2 SCT
02:40 17.9 °C 16.4 °C 1013.8 hPa Calm     91% 0 mm WeatherDisplay:10.37 W/m2 SCT
02:50 17.8 °C 16.3 °C 1013.4 hPa Calm     91% 0 mm WeatherDisplay:10.37 W/m2 SCT
03:00 17.8 °C 16.3 °C 1013.1 hPa Calm     91% 0 mm WeatherDisplay:10.37 W/m2 SCT
03:10 17.7 °C 16.2 °C 1013.1 hPa Calm   1.6 km/h 91% 0 mm WeatherDisplay:10.37 W/m2 SCT
03:20 17.7 °C 16.2 °C 1013.1 hPa Calm     91% 0 mm WeatherDisplay:10.37 W/m2 SCT
03:30 17.7 °C 16.4 °C 1013.1 hPa Calm   1.6 km/h 92% 0 mm WeatherDisplay:10.37 W/m2 SCT
03:40 17.6 °C 16.3 °C 1013.1 hPa Calm     92% 0 mm WeatherDisplay:10.37 W/m2 SCT
03:50 17.1 °C 15.6 °C 1013.1 hPa Calm     91% 0 mm WeatherDisplay:10.37 W/m2 SCT
04:00 17.1 °C 15.6 °C 1013.1 hPa Calm     91% 0 mm WeatherDisplay:10.37 W/m2 SCT
04:10 17.1 °C 15.6 °C 1012.8 hPa Calm     91% 0 mm WeatherDisplay:10.37 W/m2 SCT
04:20 17.1 °C 15.6 °C 1012.8 hPa Calm     91% 0 mm WeatherDisplay:10.37 W/m2 SCT
04:30 17.1 °C 15.6 °C 1012.8 hPa Calm     91% 0 mm WeatherDisplay:10.37 W/m2 SCT
04:40 17.1 °C 15.6 °C 1012.8 hPa Calm     91% 0 mm WeatherDisplay:10.37 W/m2 SCT
04:50 17.1 °C 15.6 °C 1012.4 hPa Calm     91% 0 mm WeatherDisplay:10.37 W/m2 SCT
05:00 17.1 °C 15.6 °C 1012.4 hPa Calm     91% 0 mm WeatherDisplay:10.37 W/m2 SCT
05:10 17.1 °C 15.6 °C 1012.4 hPa Calm     91% 0 mm WeatherDisplay:10.37 W/m2 SCT
05:20 17.1 °C 15.6 °C 1012.4 hPa Calm     91% 0 mm WeatherDisplay:10.37 W/m2 SCT
05:30 17.1 °C 15.6 °C 1012.8 hPa Calm     91% 0 mm WeatherDisplay:10.37 W/m2 SCT
05:40 17.1 °C 15.6 °C 1013.8 hPa Calm     91% 0 mm WeatherDisplay:10.37 W/m2 SCT
05:50 17.1 °C 15.6 °C 1015.8 hPa Calm     91% 0 mm WeatherDisplay:10.37 W/m2 SCT
06:00 17.1 °C 15.6 °C 1016.5 hPa Calm     91% 0 mm WeatherDisplay:10.37 W/m2 SCT
06:10 17.1 °C 15.6 °C 1016.1 hPa Calm     91% 0 mm WeatherDisplay:10.37 W/m2 SCT
06:20 17.1 °C 15.6 °C 1013.4 hPa Calm     91% 0 mm WeatherDisplay:10.37 W/m2 SCT
06:30 17.1 °C 15.6 °C 1012.4 hPa Calm     91% 0 mm WeatherDisplay:10.37 W/m2 SCT
06:50 17.1 °C 15.6 °C 1012.1 hPa Calm     91% 0 mm WeatherDisplay:10.37 W/m2 SCT
07:00 17.1 °C 15.6 °C 1012.8 hPa Calm     91% 0 mm WeatherDisplay:10.37 W/m2 SCT
07:10 17.1 °C 15.6 °C 1013.1 hPa Calm     91% 0 mm WeatherDisplay:10.37 W/m2 SCT
07:20 17.1 °C 15.6 °C 1013.8 hPa Calm     91% 0 mm WeatherDisplay:10.37 W/m2 SCT
07:30 17.1 °C 15.6 °C 1013.8 hPa Calm     91% 0 mm WeatherDisplay:10.37 W/m2 SCT
07:40 17.1 °C 15.6 °C 1013.8 hPa Calm     91% 0 mm WeatherDisplay:10.37 W/m2 SCT
07:50 17.1 °C 15.6 °C 1014.4 hPa Calm     91% 0 mm WeatherDisplay:10.37 W/m2 SCT
08:00 17.1 °C 15.6 °C 1014.4 hPa Calm     91% 0 mm WeatherDisplay:10.37 W/m2 SCT
08:10 17.1 °C 15.6 °C 1014.4 hPa Calm     91% 0 mm WeatherDisplay:10.37 W/m2 SCT
08:20 17.1 °C 15.6 °C 1014.1 hPa Calm     91% 0 mm WeatherDisplay:10.37 W/m2 SCT
08:30 17.1 °C 15.6 °C 1014.4 hPa Calm     91% 0 mm WeatherDisplay:10.37 W/m2 SCT
08:40 17.1 °C 15.6 °C 1014.8 hPa Calm     91% 0 mm WeatherDisplay:10.37 W/m2 SCT
08:50 17.1 °C 15.6 °C 1015.1 hPa Calm     91% 0 mm WeatherDisplay:10.37 W/m2 SCT
09:00 17.1 °C 15.6 °C 1015.1 hPa Calm     91% 0 mm WeatherDisplay:10.37 W/m2 SCT
09:10 17.1 °C 15.6 °C 1014.8 hPa Calm     91% 0 mm WeatherDisplay:10.37 W/m2 SCT
09:20 17.1 °C 15.6 °C 1014.4 hPa Calm     91% 0 mm WeatherDisplay:10.37 W/m2 SCT
09:30 17.1 °C 15.6 °C 1014.4 hPa Calm     91% 0 mm WeatherDisplay:10.37 W/m2 SCT
09:40 18.7 °C 17.5 °C 1014.4 hPa Calm     93% 0 mm WeatherDisplay:10.37 W/m2 SCT
09:50 18.7 °C 17.6 °C 1014.4 hPa Calm   1.6 km/h 93% 0 mm WeatherDisplay:10.37 W/m2 SCT
10:00 19.3 °C 18.3 °C 1014.4 hPa Calm   1.6 km/h 94% 0 mm WeatherDisplay:10.37 W/m2 SCT
10:10 19.7 °C 18.6 °C 1014.4 hPa Calm   1.6 km/h 93% 0 mm WeatherDisplay:10.37 W/m2 SCT
10:30 20.7 °C 19.1 °C 1014.4 hPa Calm   3.2 km/h 91% 0 mm WeatherDisplay:10.37 W/m2 SCT
10:40 21.3 °C 19.6 °C 1014.1 hPa Calm   1.6 km/h 90% 0 mm WeatherDisplay:10.37 W/m2 SCT
10:50 21.6 °C 19.5 °C 1014.1 hPa Calm   1.6 km/h 88% 0 mm WeatherDisplay:10.37 W/m2 SCT
11:00 21.8 °C 19.8 °C 1014.4 hPa Calm   1.6 km/h 88% 0 mm WeatherDisplay:10.37 W/m2 SCT
11:10 22.2 °C 20.1 °C 1014.1 hPa Calm   1.6 km/h 88% 0 mm WeatherDisplay:10.37 W/m2 SCT
11:20 22.2 °C 19.8 °C 1014.1 hPa Calm   3.2 km/h 86% 0 mm WeatherDisplay:10.37 W/m2 SCT
11:30 22.4 °C 20.2 °C 1014.1 hPa Calm   3.2 km/h 87% 0 mm WeatherDisplay:10.37 W/m2 SCT
11:40 22.7 °C 20.3 °C 1014.1 hPa Calm     86% 0 mm WeatherDisplay:10.37 W/m2 SCT
11:50 22.8 °C 20 °C 1013.8 hPa Calm   3.2 km/h 84% 0 mm WeatherDisplay:10.37 W/m2 SCT
12:00 23.2 °C 20.6 °C 1013.8 hPa WNW 1.6 km/h 3.2 km/h 85% 0 mm WeatherDisplay:10.37 W/m2 SCT
12:10 23.4 °C 20.8 °C 1013.8 hPa Calm   6.4 km/h 85% 0 mm WeatherDisplay:10.37 W/m2 SCT
12:20 23.7 °C 20.8 °C 1013.8 hPa West 1.6 km/h 8 km/h 84% 0 mm WeatherDisplay:10.37 W/m2 SCT
12:30 24.1 °C 20.6 °C 1013.8 hPa Calm   1.6 km/h 81% 0 mm WeatherDisplay:10.37 W/m2 SCT
12:40 24.7 °C 20.6 °C 1013.4 hPa Calm   1.6 km/h 78% 0 mm WeatherDisplay:10.37 W/m2 SCT
12:50 25.3 °C 21.6 °C 1013.1 hPa Calm   3.2 km/h 80% 0 mm WeatherDisplay:10.37 W/m2 SCT
13:00 25.7 °C 20.5 °C 1013.4 hPa Calm   3.2 km/h 73% 0 mm WeatherDisplay:10.37 W/m2 SCT
13:10 25.8 °C 20.6 °C 1013.4 hPa Calm   3.2 km/h 73% 0 mm WeatherDisplay:10.37 W/m2 SCT
13:20 26.1 °C 21.7 °C 1013.4 hPa Calm   3.2 km/h 77% 0 mm WeatherDisplay:10.37 W/m2 SCT
13:30 26.4 °C 21.4 °C 1013.4 hPa Calm   3.2 km/h 74% 0 mm WeatherDisplay:10.37 W/m2 SCT
13:40 26.9 °C 21.4 °C 1013.1 hPa Calm   4.8 km/h 72% 0 mm WeatherDisplay:10.37 W/m2 SCT
13:50 27.3 °C 20.9 °C 1012.8 hPa North 1.6 km/h 3.2 km/h 68% 0 mm WeatherDisplay:10.37 W/m2 SCT
14:00 27.7 °C 20.8 °C 1012.8 hPa WNW 1.6 km/h 4.8 km/h 66% 0 mm WeatherDisplay:10.37 W/m2 SCT
14:10 27.8 °C 21.1 °C 1012.4 hPa Calm   3.2 km/h 67% 0 mm WeatherDisplay:10.37 W/m2 SCT
14:20 27.8 °C 20.7 °C 1012.1 hPa Calm   3.2 km/h 65% 0 mm WeatherDisplay:10.37 W/m2 SCT
14:30 27.8 °C 19.6 °C 1011.7 hPa Calm   3.2 km/h 61% 0 mm WeatherDisplay:10.37 W/m2 SCT
14:40 27.9 °C 20.7 °C 1011.7 hPa Calm   3.2 km/h 65% 0 mm WeatherDisplay:10.37 W/m2 SCT
14:50 27.8 °C 20.4 °C 1011.7 hPa Calm   3.2 km/h 64% 0 mm WeatherDisplay:10.37 W/m2 SCT
15:00 27.6 °C 20.1 °C 1011.4 hPa Calm   3.2 km/h 64% 0 mm WeatherDisplay:10.37 W/m2 SCT
15:10 27.6 °C 21.1 °C 1011.4 hPa Calm   3.2 km/h 68% 0 mm WeatherDisplay:10.37 W/m2 SCT
15:20 27.4 °C 20.2 °C 1011.4 hPa Calm   4.8 km/h 65% 0 mm WeatherDisplay:10.37 W/m2 SCT
15:30 27.3 °C 19.8 °C 1011.1 hPa Calm   4.8 km/h 64% 0 mm WeatherDisplay:10.37 W/m2 SCT
15:40 27.2 °C 20.3 °C 1011.1 hPa Calm   3.2 km/h 66% 0 mm WeatherDisplay:10.37 W/m2 SCT
15:50 27.3 °C 20.2 °C 1011.1 hPa Calm   1.6 km/h 65% 0 mm WeatherDisplay:10.37 W/m2 SCT
16:00 27.4 °C 20 °C 1011.4 hPa Calm   1.6 km/h 64% 0 mm WeatherDisplay:10.37 W/m2 SCT
16:10 27.4 °C 20.3 °C 1011.7 hPa Calm   4.8 km/h 65% 0 mm WeatherDisplay:10.37 W/m2 SCT
16:20 27.3 °C 20.9 °C 1011.7 hPa Calm   3.2 km/h 68% 0 mm WeatherDisplay:10.37 W/m2 SCT
16:30 27.2 °C 19.8 °C 1011.7 hPa Calm   3.2 km/h 64% 0 mm WeatherDisplay:10.37 W/m2 SCT
16:40 27.2 °C 20.5 °C 1011.7 hPa Calm   1.6 km/h 67% 0 mm WeatherDisplay:10.37 W/m2 SCT
16:50 27.2 °C 20.5 °C 1011.7 hPa Calm   3.2 km/h 67% 0 mm WeatherDisplay:10.37 W/m2 SCT
17:00 27.2 °C 20.6 °C 1011.7 hPa Calm     67% 0 mm WeatherDisplay:10.37 W/m2 SCT
17:10 27.3 °C 20.4 °C 1011.7 hPa Calm   1.6 km/h 66% 0 mm WeatherDisplay:10.37 W/m2 SCT
17:20 27.2 °C 20.6 °C 1011.7 hPa Calm   1.6 km/h 67% 0 mm WeatherDisplay:10.37 W/m2 SCT
17:30 27.4 °C 19.9 °C 1011.7 hPa Calm   1.6 km/h 64% 0 mm WeatherDisplay:10.37 W/m2 SCT
17:40 27.3 °C 19.6 °C 1012.1 hPa Calm   9.7 km/h 63% 0 mm WeatherDisplay:10.37 W/m2 SCT
17:50 27.1 °C 19.9 °C 1012.4 hPa Calm   1.6 km/h 65% 0 mm WeatherDisplay:10.37 W/m2 SCT
18:00 27.2 °C 20 °C 1012.4 hPa Calm   1.6 km/h 65% 0 mm WeatherDisplay:10.37 W/m2 SCT
18:10 27.2 °C 19.6 °C 1012.4 hPa WSW 1.6 km/h 8 km/h 63% 0 mm WeatherDisplay:10.37 W/m2 SCT
18:20 27.2 °C 20 °C 1012.4 hPa Calm   9.7 km/h 65% 0 mm WeatherDisplay:10.37 W/m2 SCT
18:30 26.9 °C 19.8 °C 1012.4 hPa Calm   3.2 km/h 65% 0 mm WeatherDisplay:10.37 W/m2 SCT
18:40 26.6 °C 19.7 °C 1012.8 hPa Calm   1.6 km/h 66% 0 mm WeatherDisplay:10.37 W/m2 SCT
18:50 26.4 °C 19.1 °C 1012.4 hPa Calm   4.8 km/h 64% 0 mm WeatherDisplay:10.37 W/m2 SCT
19:00 26.2 °C 19.1 °C 1012.8 hPa Calm   3.2 km/h 65% 0 mm WeatherDisplay:10.37 W/m2 SCT
19:10 25.8 °C 18.9 °C 1012.8 hPa Calm   1.6 km/h 66% 0 mm WeatherDisplay:10.37 W/m2 SCT
19:20 25.4 °C 18.9 °C 1012.8 hPa Calm   1.6 km/h 67% 0 mm WeatherDisplay:10.37 W/m2 SCT
19:30 25.1 °C 19 °C 1012.8 hPa Calm     69% 0 mm WeatherDisplay:10.37 W/m2 SCT
19:40 24.8 °C 19.2 °C 1012.8 hPa Calm     71% 0 mm WeatherDisplay:10.37 W/m2 SCT
19:50 24.6 °C 19.2 °C 1012.8 hPa Calm     72% 0 mm WeatherDisplay:10.37 W/m2 SCT
20:00 24.3 °C 19.4 °C 1012.8 hPa Calm     74% 0 mm WeatherDisplay:10.37 W/m2 SCT
20:10 24.1 °C 19.6 °C 1012.8 hPa Calm     76% 0 mm WeatherDisplay:10.37 W/m2 SCT
20:20 23.7 °C 19.4 °C 1012.8 hPa Calm     77% 0 mm WeatherDisplay:10.37 W/m2 SCT
20:30 23.3 °C 19.1 °C 1013.1 hPa Calm     77% 0 mm WeatherDisplay:10.37 W/m2 SCT
20:40 23.1 °C 19 °C 1012.8 hPa Calm     78% 0 mm WeatherDisplay:10.37 W/m2 SCT
20:50 22.8 °C 18.8 °C 1012.8 hPa Calm     78% 0 mm WeatherDisplay:10.37 W/m2 SCT
21:00 22.6 °C 18.8 °C 1012.8 hPa Calm     79% 0 mm WeatherDisplay:10.37 W/m2 SCT
21:10 22.4 °C 18.8 °C 1012.4 hPa Calm     80% 0 mm WeatherDisplay:10.37 W/m2 SCT
21:20 22.1 °C 18.7 °C 1012.4 hPa Calm     81% 0 mm WeatherDisplay:10.37 W/m2 SCT
21:30 21.9 °C 18.7 °C 1012.4 hPa Calm     82% 0 mm WeatherDisplay:10.37 W/m2 SCT
21:40 21.7 °C 18.7 °C 1012.8 hPa Calm     83% 0 mm WeatherDisplay:10.37 W/m2 SCT
21:50 21.4 °C 18.6 °C 1012.8 hPa Calm     84% 0 mm WeatherDisplay:10.37 W/m2 SCT
22:00 21.3 °C 18.7 °C 1012.8 hPa Calm     85% 0 mm WeatherDisplay:10.37 W/m2 SCT
22:10 21.1 °C 18.5 °C 1012.8 hPa Calm     85% 0 mm WeatherDisplay:10.37 W/m2 SCT
22:20 21 °C 18.4 °C 1013.1 hPa Calm     85% 0 mm WeatherDisplay:10.37 W/m2 SCT
22:30 20.9 °C 18.4 °C 1013.1 hPa Calm     86% 0 mm WeatherDisplay:10.37 W/m2 SCT
22:40 20.7 °C 18.1 °C 1013.1 hPa Calm     85% 0 mm WeatherDisplay:10.37 W/m2 SCT
22:50 20.6 °C 18.2 °C 1013.1 hPa Calm     86% 0 mm WeatherDisplay:10.37 W/m2 SCT
23:00 20.4 °C 18.1 °C 1013.1 hPa Calm     86% 0 mm WeatherDisplay:10.37 W/m2 SCT
23:10 20.3 °C 18.1 °C 1013.1 hPa Calm     87% 0 mm WeatherDisplay:10.37 W/m2 SCT
23:20 20.2 °C 18.2 °C 1013.4 hPa Calm     88% 0 mm WeatherDisplay:10.37 W/m2 SCT
23:30 20.1 °C 17.9 °C 1013.4 hPa Calm     87% 0 mm WeatherDisplay:10.37 W/m2 SCT
23:40 20.1 °C 18 °C 1013.4 hPa Calm     88% 0 mm WeatherDisplay:10.37 W/m2 SCT
23:50 20 °C 17.9 °C 1013.8 hPa Calm     88% 0 mm WeatherDisplay:10.37 W/m2 SCT
Piedmont Bend
Compliments of Weather Underground - 4 mb